Time;durP1;ratioP1;P1;durP2;ratioP2;P2;SDS_P1;SDS_P2;PMS_P1;PMS_P2;Temp;Humidity;BMP_temperature;BMP_pressure;BME280_temperature;BME280_humidity;BME280_pressure;Samples;Min_cycle;Max_cycle;Signal;HPM_P1;HPM_P2
2024/04/04 00:01:25;;;;;;;4.20;1.73;;;;;;;13.17;100.00;97842.34;4081737;28;21141;-83
2024/04/04 00:03:28;;;;;;;4.20;1.70;;;;;;;13.18;100.00;97840.53;4083000;28;21198;-82
2024/04/04 00:05:31;;;;;;;3.30;1.60;;;;;;;13.14;100.00;97842.59;4056466;29;20652;-82
2024/04/04 00:07:32;;;;;;;3.60;1.63;;;;;;;13.09;100.00;97842.09;4062721;29;21056;-82
2024/04/04 00:09:36;;;;;;;4.90;2.50;;;;;;;13.09;100.00;97844.72;4072846;29;20729;-82
2024/04/04 00:11:38;;;;;;;4.20;1.70;;;;;;;13.11;100.00;97841.97;4062721;29;20664;-82
2024/04/04 00:13:41;;;;;;;4.13;2.10;;;;;;;13.15;100.00;97854.69;4049641;29;20660;-82
2024/04/04 00:15:42;;;;;;;5.00;1.90;;;;;;;13.18;100.00;97854.44;4062229;29;20627;-82
2024/04/04 00:17:46;;;;;;;4.97;2.00;;;;;;;13.19;100.00;97861.34;4031959;29;20685;-82
2024/04/04 00:19:49;;;;;;;3.50;1.50;;;;;;;13.23;100.00;97854.91;4076875;29;20634;-83
2024/04/04 00:21:52;;;;;;;7.30;1.53;;;;;;;13.25;100.00;97858.22;4074295;29;21229;-82
2024/04/04 00:23:53;;;;;;;3.47;1.93;;;;;;;13.28;100.00;97847.50;4059055;29;21019;-82
2024/04/04 00:25:55;;;;;;;5.63;1.90;;;;;;;13.30;100.00;97862.13;4057802;29;20692;-82
2024/04/04 00:27:57;;;;;;;7.27;1.60;;;;;;;13.33;100.00;97858.41;4077340;29;20635;-83
2024/04/04 00:30:00;;;;;;;3.30;1.73;;;;;;;13.35;100.00;97857.34;4075736;29;20631;-82
2024/04/04 00:32:03;;;;;;;4.47;1.70;;;;;;;13.36;100.00;97852.94;4064341;29;21245;-82
2024/04/04 00:34:06;;;;;;;3.60;1.50;;;;;;;13.39;100.00;97850.88;4059427;29;20629;-83
2024/04/04 00:36:09;;;;;;;3.90;1.93;;;;;;;13.39;100.00;97853.50;4062442;29;20668;-81
2024/04/04 00:38:12;;;;;;;4.40;1.80;;;;;;;13.39;100.00;97850.06;4059099;29;20636;-82
2024/04/04 00:40:14;;;;;;;3.50;1.53;;;;;;;13.39;100.00;97858.72;4072754;29;20638;-81
2024/04/04 00:42:16;;;;;;;6.97;2.07;;;;;;;13.41;100.00;97851.59;4058297;29;20633;-82
2024/04/04 00:44:20;;;;;;;2.70;1.80;;;;;;;13.43;100.00;97843.63;4075073;29;20647;-82
2024/04/04 00:46:23;;;;;;;3.00;1.77;;;;;;;13.45;100.00;97852.97;4055212;29;20682;-82
2024/04/04 00:48:25;;;;;;;6.63;2.07;;;;;;;13.46;100.00;97862.50;4048540;29;21169;-81
2024/04/04 00:50:28;;;;;;;3.80;1.93;;;;;;;13.45;100.00;97858.22;4061826;29;20990;-82
2024/04/04 00:52:31;;;;;;;3.60;1.97;;;;;;;13.46;100.00;97859.06;4056242;29;20769;-82
2024/04/04 00:54:33;;;;;;;4.00;1.73;;;;;;;13.47;100.00;97855.47;4077188;29;21211;-81
2024/04/04 00:56:36;;;;;;;4.90;1.90;;;;;;;13.48;100.00;97860.59;4073122;29;20635;-82
2024/04/04 00:58:39;;;;;;;5.50;1.80;;;;;;;13.50;100.00;97857.84;4064202;29;20652;-82
2024/04/04 01:00:40;;;;;;;4.00;2.20;;;;;;;13.48;100.00;97865.81;4088390;28;20627;-82
2024/04/04 01:02:44;;;;;;;3.93;2.20;;;;;;;13.45;100.00;97857.41;4056980;29;20664;-82
2024/04/04 01:04:45;;;;;;;3.70;1.87;;;;;;;13.48;100.00;97859.78;4058388;29;20674;-82
2024/04/04 01:06:49;;;;;;;4.57;1.90;;;;;;;13.48;100.00;97862.38;4075800;29;20696;-82
2024/04/04 01:08:55;;;;;;;5.17;1.90;;;;;;;13.46;100.00;97865.13;4069187;29;20685;-82
2024/04/04 01:10:57;;;;;;;3.73;1.87;;;;;;;13.44;100.00;97867.06;4072182;29;20616;-81
2024/04/04 01:12:59;;;;;;;4.03;1.70;;;;;;;13.41;100.00;97867.31;4067722;29;20624;-82
2024/04/04 01:15:02;;;;;;;4.07;1.87;;;;;;;13.39;100.00;97869.22;4053367;29;20640;-82
2024/04/04 01:17:03;;;;;;;3.50;2.03;;;;;;;13.39;100.00;97868.38;4073210;29;20624;-82
2024/04/04 01:19:06;;;;;;;3.10;1.60;;;;;;;13.37;100.00;97873.75;4079009;29;20721;-82
2024/04/04 01:21:07;;;;;;;7.70;2.00;;;;;;;13.35;100.00;97859.97;4057056;29;20757;-81
2024/04/04 01:23:09;;;;;;;3.47;1.90;;;;;;;13.39;100.00;97868.38;4057249;29;20717;-82
2024/04/04 01:25:12;;;;;;;3.20;1.70;;;;;;;13.39;100.00;97863.97;4064958;28;20689;-82
2024/04/04 01:27:15;;;;;;;3.33;2.00;;;;;;;13.40;100.00;97873.50;4075656;29;21216;-82
2024/04/04 01:29:17;;;;;;;4.20;2.10;;;;;;;13.40;100.00;97872.69;4086790;28;20631;-82
2024/04/04 01:31:19;;;;;;;3.97;2.10;;;;;;;13.40;100.00;97859.59;4073197;29;20647;-82
2024/04/04 01:33:20;;;;;;;3.83;1.73;;;;;;;13.39;100.00;97869.22;4057332;29;20670;-82
2024/04/04 01:35:23;;;;;;;7.97;2.40;;;;;;;13.38;100.00;97870.19;4074890;29;20634;-82
2024/04/04 01:37:24;;;;;;;3.30;2.13;;;;;;;13.34;100.00;97868.78;4048742;29;21024;-83
2024/04/04 01:39:27;;;;;;;3.07;2.13;;;;;;;13.32;100.00;97872.47;4044994;29;21064;-82
2024/04/04 01:41:30;;;;;;;6.40;2.50;;;;;;;13.31;100.00;97866.41;4078825;29;20627;-83
2024/04/04 01:43:32;;;;;;;5.63;2.50;;;;;;;13.30;100.00;97863.91;4066090;29;21044;-83
2024/04/04 01:45:34;;;;;;;3.10;2.00;;;;;;;13.30;100.00;97880.44;4049910;29;20736;-83
2024/04/04 01:47:36;;;;;;;6.73;2.20;;;;;;;13.30;100.00;97884.88;4057879;29;20628;-82
2024/04/04 01:49:37;;;;;;;4.00;1.63;;;;;;;13.32;100.00;97877.69;4069200;29;20640;-82
2024/04/04 01:51:40;;;;;;;5.27;2.07;;;;;;;13.35;100.00;97882.69;4062743;29;20637;-82
2024/04/04 01:53:41;;;;;;;3.33;1.87;;;;;;;13.38;100.00;97885.06;4033701;29;21075;-82
2024/04/04 01:55:44;;;;;;;5.97;2.20;;;;;;;13.38;100.00;97872.81;4083448;29;20643;-82
2024/04/04 01:57:46;;;;;;;3.80;1.87;;;;;;;13.36;100.00;97873.88;4080613;29;20660;-82
2024/04/04 01:59:52;;;;;;;3.80;2.20;;;;;;;13.31;100.00;97869.03;4063465;29;20674;-82
2024/04/04 02:01:54;;;;;;;6.17;2.30;;;;;;;13.29;100.00;97867.47;4076717;29;20714;-82
2024/04/04 02:03:57;;;;;;;4.67;1.77;;;;;;;13.26;100.00;97863.34;4079463;28;21181;-82
2024/04/04 02:05:59;;;;;;;3.83;1.80;;;;;;;13.26;100.00;97863.34;4053701;29;20640;-82
2024/04/04 02:08:01;;;;;;;3.60;2.23;;;;;;;13.25;100.00;97863.47;4047853;29;20729;-82
2024/04/04 02:10:04;;;;;;;4.33;2.07;;;;;;;13.24;100.00;97867.88;4063866;28;20627;-82
2024/04/04 02:12:09;;;;;;;5.03;1.80;;;;;;;13.22;100.00;97866.34;4072085;29;20646;-82
2024/04/04 02:14:12;;;;;;;4.33;2.00;;;;;;;13.20;100.00;97865.66;4076815;29;21190;-82
2024/04/04 02:16:16;;;;;;;5.20;2.17;;;;;;;13.18;100.00;97859.69;4058197;29;26095;-82
2024/04/04 02:18:19;;;;;;;3.93;2.30;;;;;;;13.16;100.00;97861.59;4075420;29;20627;-82
2024/04/04 02:20:22;;;;;;;5.50;2.50;;;;;;;13.15;100.00;97859.13;4062516;29;20703;-82
2024/04/04 02:22:23;;;;;;;2.67;1.83;;;;;;;13.12;100.00;97854.94;4091482;28;20652;-82
2024/04/04 02:24:24;;;;;;;5.47;2.07;;;;;;;13.11;100.00;97850.69;4059354;29;20632;-82
2024/04/04 02:26:29;;;;;;;3.90;1.97;;;;;;;13.11;100.00;97853.31;4060948;29;20659;-82
2024/04/04 02:28:30;;;;;;;4.67;1.80;;;;;;;13.10;100.00;97856.06;4071672;29;21260;-82
2024/04/04 02:30:35;;;;;;;4.63;1.80;;;;;;;13.08;100.00;97858.78;4080821;29;20638;-82
2024/04/04 02:32:37;;;;;;;3.47;1.93;;;;;;;13.09;100.00;97857.81;4048343;29;20990;-81
2024/04/04 02:34:39;;;;;;;4.27;1.80;;;;;;;13.09;100.00;97849.16;4057807;28;20666;-82
2024/04/04 02:36:41;;;;;;;4.63;2.10;;;;;;;13.10;100.00;97856.06;4048344;29;20664;-82
2024/04/04 02:38:44;;;;;;;5.07;1.50;;;;;;;13.10;100.00;97854.25;4063532;29;20644;-81
2024/04/04 02:40:45;;;;;;;3.27;1.50;;;;;;;13.12;100.00;97854.13;4065275;29;21263;-82
2024/04/04 02:42:48;;;;;;;3.30;1.60;;;;;;;13.13;100.00;97863.66;4076269;29;20631;-81
2024/04/04 02:44:49;;;;;;;3.60;1.40;;;;;;;13.12;100.00;97859.38;4044402;29;21199;-82
2024/04/04 02:46:53;;;;;;;5.17;1.60;;;;;;;13.12;100.00;97859.38;4047614;29;20660;-82
2024/04/04 02:48:54;;;;;;;2.60;1.40;;;;;;;13.14;100.00;97852.19;4072893;29;21207;-82
2024/04/04 02:50:56;;;;;;;3.50;1.50;;;;;;;13.14;100.00;97847.81;4065438;29;20624;-82
2024/04/04 02:53:00;;;;;;;4.47;1.73;;;;;;;13.15;100.00;97844.22;4076822;29;20626;-84
2024/04/04 02:55:02;;;;;;;4.23;2.00;;;;;;;13.14;100.00;97845.19;4065304;29;21285;-84
2024/04/04 02:57:04;;;;;;;4.30;1.77;;;;;;;13.14;100.00;97844.34;4061079;29;20636;-84
2024/04/04 02:59:06;;;;;;;4.30;1.40;;;;;;;13.13;100.00;97843.53;4033877;29;20641;-83
2024/04/04 03:01:08;;;;;;;3.17;1.47;;;;;;;13.17;100.00;97841.47;4034808;29;20634;-84
2024/04/04 03:03:11;;;;;;;2.83;1.60;;;;;;;13.17;100.00;97847.56;4072455;29;20634;-83
2024/04/04 03:05:13;;;;;;;2.80;1.60;;;;;;;13.18;100.00;97843.97;4070656;29;21178;-83
2024/04/04 03:07:15;;;;;;;3.13;1.53;;;;;;;13.18;100.00;97844.81;4056512;29;20674;-83
2024/04/04 03:09:18;;;;;;;3.27;1.30;;;;;;;13.21;100.00;97848.94;4064121;29;21046;-84
2024/04/04 03:11:19;;;;;;;3.07;1.57;;;;;;;13.22;100.00;97845.38;4059636;29;20643;-83
2024/04/04 03:13:22;;;;;;;5.43;1.63;;;;;;;13.23;100.00;97839.22;4077943;29;20627;-84
2024/04/04 03:15:23;;;;;;;3.50;1.73;;;;;;;13.20;100.00;97842.91;4075628;28;20712;-83
2024/04/04 03:17:28;;;;;;;3.40;1.37;;;;;;;13.20;100.00;97837.66;4070452;29;20651;-84
2024/04/04 03:19:30;;;;;;;2.53;1.20;;;;;;;13.20;100.00;97837.66;4076489;29;20619;-84
2024/04/04 03:21:33;;;;;;;2.87;1.60;;;;;;;13.19;100.00;97824.69;4062685;29;21058;-83
2024/04/04 03:23:34;;;;;;;4.50;1.30;;;;;;;13.18;100.00;97830.06;4091668;28;20641;-84
2024/04/04 03:25:36;;;;;;;4.53;1.70;;;;;;;13.16;100.00;97830.19;4064646;29;20660;-84
2024/04/04 03:27:38;;;;;;;3.20;1.50;;;;;;;13.16;100.00;97829.38;4047759;29;20668;-84
2024/04/04 03:29:40;;;;;;;3.50;1.50;;;;;;;13.14;100.00;97824.25;4065775;29;21214;-83
2024/04/04 03:31:42;;;;;;;3.70;1.83;;;;;;;13.13;100.00;97824.38;4059343;29;20642;-84
2024/04/04 03:33:45;;;;;;;2.47;1.50;;;;;;;13.13;100.00;97819.97;4081403;29;21001;-83
2024/04/04 03:35:49;;;;;;;3.90;1.40;;;;;;;13.17;100.00;97820.53;4042269;29;20672;-83
2024/04/04 03:37:51;;;;;;;5.60;1.60;;;;;;;13.19;100.00;97832.56;4075051;29;20631;-83
2024/04/04 03:39:55;;;;;;;3.20;1.53;;;;;;;13.20;100.00;97827.19;4057095;29;20624;-84
2024/04/04 03:41:57;;;;;;;3.80;1.83;;;;;;;13.22;100.00;97825.25;4048873;29;21009;-83
2024/04/04 03:43:59;;;;;;;3.43;1.30;;;;;;;13.27;100.00;97823.06;4039178;29;20629;-84
2024/04/04 03:46:02;;;;;;;2.80;1.33;;;;;;;13.30;100.00;97824.63;4078808;29;21008;-83
2024/04/04 03:48:05;;;;;;;5.90;1.40;;;;;;;13.31;100.00;97818.44;4090436;28;20738;-83
2024/04/04 03:50:08;;;;;;;2.90;1.40;;;;;;;13.33;100.00;97825.19;4080230;29;20645;-84
2024/04/04 03:52:11;;;;;;;4.07;1.40;;;;;;;13.31;100.00;97826.28;4049272;29;20637;-83
2024/04/04 03:54:13;;;;;;;2.97;1.30;;;;;;;13.29;100.00;97830.81;4078963;28;20640;-84
2024/04/04 03:56:15;;;;;;;4.83;1.37;;;;;;;13.30;100.00;97824.63;4056770;29;20629;-84
2024/04/04 03:58:18;;;;;;;3.00;1.40;;;;;;;13.29;100.00;97830.81;4093237;28;21008;-84
2024/04/04 04:00:21;;;;;;;2.50;1.27;;;;;;;13.31;100.00;97828.91;4092560;28;21088;-84
2024/04/04 04:02:22;;;;;;;4.30;1.50;;;;;;;13.31;100.00;97834.16;4092284;28;20722;-84
2024/04/04 04:04:25;;;;;;;4.37;1.43;;;;;;;13.34;100.00;97845.19;4064988;29;20651;-84
2024/04/04 04:06:27;;;;;;;3.80;1.37;;;;;;;13.34;100.00;97844.38;4058752;29;20636;-83
2024/04/04 04:08:30;;;;;;;2.70;1.33;;;;;;;13.36;100.00;97843.28;4065837;29;20637;-84
2024/04/04 04:10:32;;;;;;;4.47;1.47;;;;;;;13.35;100.00;97839.00;4074708;29;21033;-84
2024/04/04 04:12:34;;;;;;;2.83;1.40;;;;;;;13.37;100.00;97844.13;4061260;29;20810;-84
2024/04/04 04:14:37;;;;;;;6.43;1.60;;;;;;;13.37;100.00;97839.69;4093976;28;20670;-83
2024/04/04 04:16:38;;;;;;;1.90;1.13;;;;;;;13.37;100.00;97844.13;4048336;29;20643;-84
2024/04/04 04:18:41;;;;;;;2.90;1.40;;;;;;;13.40;100.00;97849.94;4050090;29;20784;-84
2024/04/04 04:23:08;;;;;;;3.30;1.67;;;;;;;13.41;100.00;97843.75;4074695;29;20660;-83
2024/04/04 04:25:12;;;;;;;3.70;1.30;;;;;;;13.39;100.00;97852.69;4079914;29;20628;-84
2024/04/04 04:27:13;;;;;;;2.70;1.13;;;;;;;13.38;100.00;97851.00;4062444;29;20660;-83
2024/04/04 04:29:18;;;;;;;4.40;1.40;;;;;;;13.34;100.00;97842.56;4063986;29;20628;-83
2024/04/04 04:31:24;;;;;;;3.60;1.30;;;;;;;13.31;100.00;97844.63;4055607;29;20648;-83
2024/04/04 04:33:27;;;;;;;3.27;1.00;;;;;;;13.28;100.00;97842.25;4078641;29;20831;-83
2024/04/04 04:35:28;;;;;;;2.00;1.17;;;;;;;13.24;100.00;97848.69;4062096;29;21024;-83
2024/04/04 04:37:31;;;;;;;2.20;1.07;;;;;;;13.20;100.00;97845.50;4064200;29;20625;-84
2024/04/04 04:39:33;;;;;;;4.50;1.37;;;;;;;13.17;100.00;97846.72;4063702;29;20734;-83
2024/04/04 04:41:36;;;;;;;3.50;1.10;;;;;;;13.11;100.00;97832.34;4060320;29;20723;-83
2024/04/04 04:43:38;;;;;;;4.50;1.20;;;;;;;13.13;100.00;97832.22;4044995;29;20633;-85
2024/04/04 04:45:40;;;;;;;2.77;1.40;;;;;;;13.14;99.73;97842.59;4067291;29;20662;-84
2024/04/04 04:47:43;;;;;;;6.63;1.30;;;;;;;13.14;99.34;97829.50;4043928;29;20657;-83
2024/04/04 04:49:45;;;;;;;3.30;1.27;;;;;;;13.09;99.07;97836.06;4042012;29;20628;-83
2024/04/04 04:51:47;;;;;;;4.13;1.60;;;;;;;13.07;99.12;97838.78;4064993;29;20636;-83
2024/04/04 04:53:50;;;;;;;2.83;1.00;;;;;;;13.08;99.61;97837.84;4048372;29;21022;-83
2024/04/04 04:55:51;;;;;;;2.97;1.50;;;;;;;13.10;99.73;97835.94;4062206;29;20715;-86
2024/04/04 04:57:55;;;;;;;3.30;1.00;;;;;;;13.08;99.62;97842.22;4061981;29;20625;-84
2024/04/04 04:59:58;;;;;;;2.77;1.20;;;;;;;13.05;98.85;97843.34;4066077;29;20725;-84
2024/04/04 05:02:02;;;;;;;6.73;1.83;;;;;;;13.02;98.72;97843.59;4062050;29;20634;-84
2024/04/04 05:04:03;;;;;;;2.87;1.30;;;;;;;13.02;100.00;97834.88;4050150;29;20629;-84
2024/04/04 05:06:07;;;;;;;2.43;1.03;;;;;;;13.03;99.50;97834.75;4056095;29;21206;-85
2024/04/04 05:08:08;;;;;;;3.33;1.20;;;;;;;13.04;99.83;97836.44;4065187;29;20682;-84
2024/04/04 05:10:10;;;;;;;3.70;1.17;;;;;;;13.08;98.23;97822.13;4081980;29;20694;-84
2024/04/04 05:12:12;;;;;;;2.17;0.93;;;;;;;13.09;99.67;97829.00;4060965;29;21277;-84
2024/04/04 05:14:15;;;;;;;2.93;1.03;;;;;;;13.14;99.81;97833.88;4066075;29;20663;-83
2024/04/04 05:16:17;;;;;;;2.30;0.90;;;;;;;13.19;98.81;97836.00;4074349;29;21272;-83
2024/04/04 05:18:19;;;;;;;6.50;3.23;;;;;;;13.25;98.52;97829.41;4040087;29;20738;-83
2024/04/04 05:20:21;;;;;;;5.30;2.00;;;;;;;13.29;98.98;97825.56;4075459;29;20661;-83
2024/04/04 05:22:23;;;;;;;4.00;1.67;;;;;;;13.37;98.82;97831.03;4044339;29;20632;-83
2024/04/04 05:24:25;;;;;;;2.23;1.00;;;;;;;13.45;98.91;97836.44;4061728;29;20627;-83
2024/04/04 05:26:26;;;;;;;4.30;1.20;;;;;;;13.43;98.06;97830.50;4078824;29;20639;-83
2024/04/04 05:28:31;;;;;;;2.57;1.17;;;;;;;13.45;98.58;97826.78;4050219;29;21492;-83
2024/04/04 05:30:34;;;;;;;2.30;0.97;;;;;;;13.48;98.14;97837.00;4068635;29;20700;-83
2024/04/04 05:32:36;;;;;;;2.50;1.17;;;;;;;13.49;97.74;97836.06;4064033;29;20656;-85
2024/04/04 05:34:40;;;;;;;3.27;1.20;;;;;;;13.49;97.81;97838.69;4094671;28;20722;-84
2024/04/04 05:36:42;;;;;;;4.20;1.40;;;;;;;13.48;97.37;97830.94;4074570;29;20626;-85
2024/04/04 05:38:44;;;;;;;3.30;1.00;;;;;;;13.47;96.88;97824.88;4093099;28;21076;-83
2024/04/04 05:40:47;;;;;;;2.93;1.10;;;;;;;13.52;96.28;97821.88;4078224;29;20616;-82
2024/04/04 05:42:52;;;;;;;2.67;1.10;;;;;;;13.55;96.07;97822.44;4074104;29;20664;-81
2024/04/04 05:44:55;;;;;;;2.73;1.27;;;;;;;13.56;96.56;97820.66;4062929;29;20630;-83
2024/04/04 05:46:57;;;;;;;4.10;1.40;;;;;;;13.60;95.48;97819.44;4067903;29;20656;-83
2024/04/04 05:49:00;;;;;;;2.43;0.90;;;;;;;13.64;95.96;97827.72;4067891;29;20628;-83
2024/04/04 05:51:03;;;;;;;2.93;0.97;;;;;;;13.67;96.19;97824.03;4052460;29;20641;-83
2024/04/04 05:53:06;;;;;;;3.07;1.17;;;;;;;13.69;95.90;97829.97;4073214;29;20630;-83
2024/04/04 05:55:09;;;;;;;3.80;1.50;;;;;;;13.70;95.41;97835.06;4064390;29;20630;-84
2024/04/04 05:57:12;;;;;;;3.90;2.00;;;;;;;13.75;96.64;97829.44;4068735;29;20636;-83
2024/04/04 05:59:15;;;;;;;2.83;1.20;;;;;;;13.77;96.82;97833.59;4053414;29;20633;-83
2024/04/04 06:01:20;;;;;;;4.30;1.13;;;;;;;13.75;96.38;97825.03;4063266;29;20636;-83
2024/04/04 06:03:23;;;;;;;1.80;0.90;;;;;;;13.72;95.16;97825.28;4064180;29;20731;-83
2024/04/04 06:05:25;;;;;;;4.00;1.07;;;;;;;13.74;94.34;97812.91;4066097;29;20644;-83
2024/04/04 06:07:27;;;;;;;2.03;1.00;;;;;;;13.78;95.29;97813.47;4095396;28;20678;-83
2024/04/04 06:09:30;;;;;;;2.87;1.40;;;;;;;13.75;94.84;97813.72;4067292;29;20640;-83
2024/04/04 06:11:31;;;;;;;3.80;1.00;;;;;;;13.79;95.22;97807.25;4081654;29;20675;-83
2024/04/04 06:13:33;;;;;;;4.30;1.27;;;;;;;13.82;94.63;97815.69;4036218;29;20722;-83
2024/04/04 06:15:35;;;;;;;5.07;1.17;;;;;;;13.83;95.66;97822.59;4064463;29;20634;-83
2024/04/04 06:17:37;;;;;;;3.10;0.80;;;;;;;13.79;95.80;97821.19;4077779;29;20659;-83
2024/04/04 06:19:40;;;;;;;4.40;1.20;;;;;;;13.76;95.45;97821.44;4073437;29;20635;-84
2024/04/04 06:21:43;;;;;;;4.63;1.40;;;;;;;13.74;94.98;97820.75;4077134;29;20631;-84
2024/04/04 06:23:44;;;;;;;5.30;1.70;;;;;;;13.80;95.62;97817.63;4062003;29;20632;-84
2024/04/04 06:25:47;;;;;;;3.03;1.37;;;;;;;13.88;94.79;97811.72;4063969;29;20658;-86
2024/04/04 06:27:51;;;;;;;5.17;1.27;;;;;;;13.89;94.37;97811.59;4078350;28;20751;-86
2024/04/04 06:29:54;;;;;;;8.07;1.20;;;;;;;13.93;95.13;97810.34;4059252;29;20667;-84
2024/04/04 06:31:55;;;;;;;3.43;1.00;;;;;;;13.98;94.71;97813.41;4078732;29;20646;-85
2024/04/04 06:33:58;;;;;;;2.70;1.00;;;;;;;14.06;93.14;97816.25;4080465;29;20745;-84
2024/04/04 06:36:00;;;;;;;6.17;1.30;;;;;;;14.16;93.28;97810.06;4097437;28;20655;-84
2024/04/04 06:38:03;;;;;;;2.73;1.00;;;;;;;14.30;93.17;97816.72;4064288;29;20621;-85
2024/04/04 06:40:05;;;;;;;3.40;1.40;;;;;;;14.48;91.71;97815.09;4050790;29;21250;-85
2024/04/04 06:42:07;;;;;;;4.03;0.93;;;;;;;14.61;93.27;97816.50;4051701;29;20626;-84
2024/04/04 06:44:09;;;;;;;4.70;0.93;;;;;;;14.65;92.02;97823.97;4049327;29;21216;-84
2024/04/04 06:46:12;;;;;;;3.33;0.80;;;;;;;14.73;91.67;97820.66;4065854;29;20634;-83
2024/04/04 06:48:13;;;;;;;5.27;1.10;;;;;;;14.84;89.54;97818.75;4063796;29;21120;-84
2024/04/04 06:50:16;;;;;;;3.90;1.17;;;;;;;14.88;90.07;97814.88;4033264;29;20630;-84
2024/04/04 06:52:18;;;;;;;5.43;1.20;;;;;;;14.97;89.76;97814.03;4058438;29;20643;-84
2024/04/04 06:54:20;;;;;;;4.47;1.30;;;;;;;15.03;89.37;97802.97;4038831;29;21273;-85
2024/04/04 06:56:22;;;;;;;2.83;0.97;;;;;;;15.24;89.67;97807.13;4090750;29;21330;-84
2024/04/04 06:58:25;;;;;;;4.70;1.20;;;;;;;15.74;89.08;97809.41;4065688;29;20701;-84
2024/04/04 07:00:26;;;;;;;3.73;1.33;;;;;;;16.25;88.02;97812.41;4067919;29;21033;-84
2024/04/04 07:02:28;;;;;;;4.60;1.30;;;;;;;16.62;87.89;97824.53;4068214;29;20629;-82
2024/04/04 07:04:30;;;;;;;4.37;1.40;;;;;;;16.97;85.02;97832.47;4050389;29;20635;-82
2024/04/04 07:06:32;;;;;;;5.80;1.10;;;;;;;16.81;83.06;97814.69;4081664;29;20618;-82
2024/04/04 07:08:38;;;;;;;3.50;1.10;;;;;;;16.55;83.87;97813.75;4051086;29;20691;-82
2024/04/04 07:10:40;;;;;;;4.00;1.20;;;;;;;16.84;84.13;97821.44;4036038;29;20643;-83
2024/04/04 07:12:43;;;;;;;2.83;1.00;;;;;;;16.81;83.40;97819.09;4065457;29;20648;-83
2024/04/04 07:14:46;;;;;;;4.07;1.13;;;;;;;16.60;82.69;97806.22;4067895;29;20622;-82
2024/04/04 07:16:47;;;;;;;6.70;1.43;;;;;;;16.53;85.29;97813.06;4075396;29;20644;-83
2024/04/04 07:18:50;;;;;;;4.40;1.40;;;;;;;16.61;84.23;97810.53;4084518;29;20744;-83
2024/04/04 07:20:53;;;;;;;4.37;1.43;;;;;;;16.73;85.29;97819.88;4066028;29;20735;-82
2024/04/04 07:22:55;;;;;;;6.80;1.40;;;;;;;16.58;83.35;97816.09;4055236;29;20648;-82
2024/04/04 07:24:58;;;;;;;4.90;1.37;;;;;;;16.45;84.31;97809.53;4067473;29;21058;-82
2024/04/04 07:27:01;;;;;;;4.00;1.23;;;;;;;16.55;85.62;97808.50;4083234;28;20645;-84
2024/04/04 07:29:03;;;;;;;5.30;1.27;;;;;;;16.68;85.14;97814.22;4061957;29;20698;-84
2024/04/04 07:31:06;;;;;;;4.60;1.47;;;;;;;16.65;85.36;97816.31;4052367;29;20627;-82
2024/04/04 07:33:07;;;;;;;6.63;1.30;;;;;;;16.49;83.06;97804.78;4083242;29;21227;-83
2024/04/04 07:35:12;;;;;;;4.67;1.50;;;;;;;16.21;84.46;97806.56;4057824;29;21559;-82
2024/04/04 07:37:14;;;;;;;5.60;1.47;;;;;;;16.12;85.21;97806.63;4076936;29;20612;-83
2024/04/04 07:39:16;;;;;;;4.70;1.50;;;;;;;16.07;86.96;97811.47;4063480;29;21534;-82
2024/04/04 07:41:19;;;;;;;4.47;1.43;;;;;;;16.07;86.43;97803.56;4063640;29;21046;-83
2024/04/04 07:43:24;;;;;;;6.30;1.53;;;;;;;16.03;85.97;97805.69;4035624;29;20701;-82
2024/04/04 07:45:25;;;;;;;6.23;1.53;;;;;;;16.01;85.15;97814.69;4065568;29;20630;-82
2024/04/04 07:47:27;;;;;;;6.03;1.60;;;;;;;15.96;86.09;97816.09;4080524;28;20648;-83
2024/04/04 07:49:29;;;;;;;5.70;1.40;;;;;;;15.84;85.83;97823.34;4065123;29;20643;-82
2024/04/04 07:51:31;;;;;;;7.00;1.93;;;;;;;15.71;85.24;97817.56;4077979;29;20666;-82
2024/04/04 07:53:32;;;;;;;5.07;1.40;;;;;;;15.66;85.00;97809.25;4066700;29;20741;-83
2024/04/04 07:55:35;;;;;;;5.67;1.63;;;;;;;15.60;85.10;97815.09;4065427;29;20638;-83
2024/04/04 07:57:38;;;;;;;4.87;2.23;;;;;;;15.56;85.96;97807.66;4069882;29;21239;-83
2024/04/04 07:59:40;;;;;;;5.83;1.83;;;;;;;15.52;87.85;97808.09;4064626;29;20641;-82
2024/04/04 08:01:42;;;;;;;6.17;1.63;;;;;;;15.43;87.43;97816.81;4082058;29;20758;-82
2024/04/04 08:03:47;;;;;;;4.33;1.53;;;;;;;15.43;85.35;97803.69;4037285;29;20640;-82
2024/04/04 08:05:48;;;;;;;6.90;1.40;;;;;;;15.41;86.20;97824.84;4070588;28;20969;-82
2024/04/04 08:07:52;;;;;;;4.53;1.23;;;;;;;15.41;86.43;97816.09;4070724;29;20719;-82
2024/04/04 08:09:53;;;;;;;7.00;1.67;;;;;;;15.29;88.27;97806.72;4066418;29;20661;-81
2024/04/04 08:11:56;;;;;;;9.30;1.50;;;;;;;15.24;88.89;97808.94;4059405;29;21219;-82
2024/04/04 08:14:00;;;;;;;4.90;1.40;;;;;;;15.17;88.07;97810.50;4082284;29;20628;-82
2024/04/04 08:16:04;;;;;;;6.50;1.43;;;;;;;15.14;88.39;97810.75;4082329;28;21054;-83
2024/04/04 08:18:06;;;;;;;6.90;1.27;;;;;;;15.04;88.04;97806.47;4079653;29;20616;-83
2024/04/04 08:20:09;;;;;;;5.00;1.90;;;;;;;15.02;87.89;97809.22;4064073;29;20631;-82
2024/04/04 08:22:11;;;;;;;5.10;1.50;;;;;;;14.99;87.54;97813.91;4067147;29;21043;-83
2024/04/04 08:24:14;;;;;;;6.43;1.60;;;;;;;15.03;88.40;97823.16;4052922;29;20728;-82
2024/04/04 08:26:22;;;;;;;5.37;1.40;;;;;;;15.09;87.74;97834.81;4066811;29;20992;-82
2024/04/04 08:28:25;;;;;;;5.77;1.30;;;;;;;15.09;88.97;97826.91;4077681;29;20986;-82
2024/04/04 08:30:27;;;;;;;6.10;1.73;;;;;;;15.09;87.97;97826.06;4056346;29;20799;-82
2024/04/04 08:32:31;;;;;;;4.73;1.57;;;;;;;15.12;87.64;97829.28;4056141;29;20672;-82
2024/04/04 08:34:34;;;;;;;5.00;1.60;;;;;;;15.18;89.07;97831.38;4066140;29;20653;-84
2024/04/04 08:36:37;;;;;;;5.73;1.50;;;;;;;15.21;89.98;97822.38;4060721;29;21075;-85
2024/04/04 08:38:39;;;;;;;4.63;1.77;;;;;;;15.18;87.41;97822.63;4060070;29;20649;-84
2024/04/04 08:40:43;;;;;;;5.30;1.40;;;;;;;15.19;88.51;97829.56;4073886;29;20664;-84
2024/04/04 08:42:45;;;;;;;6.60;1.40;;;;;;;15.23;87.71;97838.81;4043949;29;20630;-83
2024/04/04 08:44:49;;;;;;;5.30;1.60;;;;;;;15.23;88.59;97842.28;4058159;29;20631;-83
2024/04/04 08:46:52;;;;;;;4.67;1.90;;;;;;;15.27;86.83;97832.31;4045648;29;20687;-82
2024/04/04 08:48:55;;;;;;;5.60;1.47;;;;;;;15.23;86.35;97833.56;4079438;29;20732;-84
2024/04/04 08:50:56;;;;;;;6.57;1.80;;;;;;;15.26;87.30;97843.78;4073868;29;20635;-84
2024/04/04 08:53:03;;;;;;;5.10;1.53;;;;;;;15.22;86.47;97839.78;4045057;29;20676;-84
2024/04/04 08:55:05;;;;;;;5.87;1.57;;;;;;;15.26;86.54;97846.41;4033590;29;20698;-85
2024/04/04 08:57:08;;;;;;;4.70;2.17;;;;;;;15.25;87.77;97856.09;4062719;29;21099;-84
2024/04/04 08:59:09;;;;;;;4.67;1.27;;;;;;;15.20;89.35;97860.13;4074722;29;20740;-85
2024/04/04 09:01:12;;;;;;;5.70;1.40;;;;;;;15.20;89.71;97854.88;4051438;29;20630;-85
2024/04/04 09:03:15;;;;;;;5.37;1.80;;;;;;;15.21;88.62;97853.91;4063005;29;20708;-82
2024/04/04 09:05:17;;;;;;;7.10;1.70;;;;;;;15.20;88.93;97862.75;4061882;29;20653;-83
2024/04/04 09:07:19;;;;;;;6.13;2.07;;;;;;;15.24;90.01;97856.25;4095224;28;21236;-83
2024/04/04 09:09:23;;;;;;;7.30;1.70;;;;;;;15.23;89.49;97854.56;4061586;29;20665;-82
2024/04/04 09:11:25;;;;;;;6.07;1.30;;;;;;;15.18;88.66;97862.91;4046159;29;20643;-82
2024/04/04 09:13:29;;;;;;;6.70;1.60;;;;;;;15.21;89.05;97865.22;4065575;29;21216;-82
2024/04/04 09:15:30;;;;;;;9.03;1.60;;;;;;;15.12;88.92;97847.66;4069001;29;20741;-81
2024/04/04 09:17:33;;;;;;;7.43;1.60;;;;;;;15.13;88.79;97851.91;4096733;28;20670;-81
2024/04/04 09:19:36;;;;;;;4.23;1.30;;;;;;;15.10;90.11;97846.94;4066486;29;20729;-81
2024/04/04 09:21:40;;;;;;;6.63;1.60;;;;;;;15.08;88.40;97845.44;4062876;29;20709;-81
2024/04/04 09:23:42;;;;;;;5.23;1.20;;;;;;;15.10;88.88;97846.94;4080446;29;20636;-79
2024/04/04 09:25:44;;;;;;;4.83;1.30;;;;;;;15.11;88.40;97853.06;4081355;29;20703;-85
2024/04/04 09:27:45;;;;;;;4.33;1.10;;;;;;;15.11;90.00;97858.31;4055899;29;20688;-85
2024/04/04 09:29:48;;;;;;;7.20;1.70;;;;;;;15.13;89.22;97856.34;4063696;29;20643;-84
2024/04/04 09:31:50;;;;;;;9.53;2.60;;;;;;;15.10;88.14;97854.81;4064994;29;20629;-85
2024/04/04 09:33:52;;;;;;;8.20;2.20;;;;;;;15.12;89.77;97859.94;4063626;29;20631;-85
2024/04/04 09:35:56;;;;;;;6.70;1.73;;;;;;;15.18;90.25;97860.28;4039496;29;20638;-86